createdAt,value
2022-12-17T00:01:42.098Z,19.17
2022-12-17T00:04:27.405Z,20.17
2022-12-17T00:07:12.852Z,18.70
2022-12-17T00:10:00.569Z,19.60
2022-12-17T00:12:45.989Z,19.37
2022-12-17T00:15:31.473Z,19.00
2022-12-17T00:18:25.439Z,18.80
2022-12-17T00:21:19.185Z,19.27
2022-12-17T00:24:05.456Z,18.73
2022-12-17T00:26:51.770Z,20.60
2022-12-17T00:29:37.455Z,19.47
2022-12-17T00:32:23.669Z,19.17
2022-12-17T00:35:09.325Z,19.13
2022-12-17T00:37:55.220Z,19.20
2022-12-17T00:40:42.104Z,19.40
2022-12-17T00:43:30.152Z,19.40
2022-12-17T00:46:15.785Z,19.00
2022-12-17T00:49:01.691Z,19.20
2022-12-17T00:51:47.510Z,19.30
2022-12-17T00:54:32.786Z,19.70
2022-12-17T00:57:19.745Z,19.77
2022-12-17T01:00:05.124Z,19.37
2022-12-17T01:02:50.623Z,18.90
2022-12-17T01:05:36.581Z,18.77
2022-12-17T01:08:27.470Z,19.67
2022-12-17T01:11:21.304Z,18.77
2022-12-17T01:14:07.165Z,19.10
2022-12-17T01:16:52.864Z,18.27
2022-12-17T01:19:41.566Z,19.23
2022-12-17T01:22:26.815Z,18.27
2022-12-17T01:25:12.050Z,18.47
2022-12-17T01:27:57.184Z,18.67
2022-12-17T01:30:42.513Z,18.47
2022-12-17T01:33:29.434Z,18.63
2022-12-17T01:36:15.737Z,18.47
2022-12-17T01:39:01.708Z,19.73
2022-12-17T01:41:47.385Z,18.63
2022-12-17T01:44:57.689Z,18.30
2022-12-17T01:47:45.503Z,18.77
2022-12-17T01:50:32.264Z,18.93
2022-12-17T01:53:21.578Z,18.93
2022-12-17T01:56:07.957Z,18.77
2022-12-17T01:58:54.622Z,19.47
2022-12-17T02:01:40.654Z,18.37
2022-12-17T02:04:28.653Z,18.50
2022-12-17T02:07:29.628Z,19.30
2022-12-17T02:10:27.407Z,19.43
2022-12-17T02:13:18.449Z,19.13
2022-12-17T02:16:13.779Z,17.77
2022-12-17T02:19:09.393Z,18.77
2022-12-17T02:21:58.163Z,17.80
2022-12-17T02:24:43.256Z,17.23
2022-12-17T02:27:29.290Z,18.70
2022-12-17T02:30:19.336Z,18.27
2022-12-17T02:33:06.369Z,18.57
2022-12-17T02:36:03.318Z,18.07
2022-12-17T02:38:50.717Z,17.93
2022-12-17T02:41:41.448Z,18.83
2022-12-17T02:44:29.602Z,19.23
2022-12-17T02:47:26.091Z,18.37
2022-12-17T02:50:13.412Z,17.70
2022-12-17T02:53:03.822Z,18.03
2022-12-17T02:55:50.034Z,18.50
2022-12-17T02:58:35.586Z,18.13
2022-12-17T03:01:21.238Z,17.90
2022-12-17T03:04:06.769Z,17.53
2022-12-17T03:06:52.635Z,17.47
2022-12-17T03:09:38.068Z,17.20
2022-12-17T03:12:23.402Z,17.90
2022-12-17T03:15:08.656Z,16.93
2022-12-17T03:17:54.103Z,17.27
2022-12-17T03:20:39.421Z,17.33
2022-12-17T03:23:26.822Z,17.10
2022-12-17T03:26:12.768Z,17.23
2022-12-17T03:28:58.026Z,16.20
2022-12-17T03:31:43.298Z,17.57
2022-12-17T03:34:28.490Z,17.33
2022-12-17T03:37:13.602Z,17.13
2022-12-17T03:39:59.906Z,17.50
2022-12-17T03:42:45.408Z,16.93
2022-12-17T03:45:30.762Z,17.67
2022-12-17T03:48:27.842Z,17.17
2022-12-17T03:51:13.655Z,17.87
2022-12-17T03:53:59.825Z,16.83
2022-12-17T03:56:45.244Z,17.33
2022-12-17T03:59:31.036Z,17.57
2022-12-17T04:02:17.126Z,17.03
2022-12-17T04:05:03.018Z,17.20
2022-12-17T04:07:48.249Z,17.17
2022-12-17T04:10:33.460Z,16.93
2022-12-17T04:13:18.700Z,17.23
2022-12-17T04:16:03.965Z,16.70
2022-12-17T04:18:49.217Z,17.03
2022-12-17T04:21:34.451Z,16.27
2022-12-17T04:24:39.646Z,17.50
2022-12-17T04:27:25.142Z,16.77
2022-12-17T04:30:10.610Z,16.10
2022-12-17T04:32:55.879Z,16.97
2022-12-17T04:35:40.930Z,17.23
2022-12-17T04:38:26.346Z,16.33
2022-12-17T04:41:11.938Z,17.57
2022-12-17T04:44:02.793Z,16.93
2022-12-17T04:46:48.764Z,17.27
2022-12-17T04:49:34.191Z,16.97
2022-12-17T04:52:19.752Z,16.73
2022-12-17T04:55:05.364Z,16.87
2022-12-17T04:57:50.490Z,16.70
2022-12-17T05:00:36.439Z,16.40
2022-12-17T05:03:27.875Z,15.30
2022-12-17T05:06:13.390Z,16.40
2022-12-17T05:08:58.698Z,16.43
2022-12-17T05:11:44.127Z,16.23
2022-12-17T05:14:29.344Z,16.23
2022-12-17T05:17:14.920Z,16.37
2022-12-17T05:20:00.152Z,16.40
2022-12-17T05:22:45.449Z,16.40
2022-12-17T05:25:38.383Z,16.57
2022-12-17T05:28:23.906Z,16.60
2022-12-17T05:31:14.436Z,15.67
2022-12-17T05:34:00.148Z,16.20
2022-12-17T05:36:45.596Z,16.53
2022-12-17T05:39:31.192Z,15.23
2022-12-17T05:42:16.898Z,14.60
2022-12-17T05:45:02.381Z,16.17
2022-12-17T05:47:47.665Z,15.67
2022-12-17T05:50:33.068Z,15.97
2022-12-17T05:53:24.975Z,15.13
2022-12-17T05:56:11.761Z,14.63
2022-12-17T05:58:57.877Z,15.77
2022-12-17T06:01:43.311Z,15.47
2022-12-17T06:04:29.594Z,15.97
2022-12-17T06:07:14.851Z,16.20
2022-12-17T06:10:00.074Z,15.50
2022-12-17T06:12:45.671Z,15.93
2022-12-17T06:15:31.058Z,14.70
2022-12-17T06:18:17.399Z,16.07
2022-12-17T06:21:03.924Z,16.10
2022-12-17T06:23:49.343Z,15.27
2022-12-17T06:26:34.515Z,16.43
2022-12-17T06:29:19.882Z,15.63
2022-12-17T06:32:05.259Z,15.40
2022-12-17T06:34:50.586Z,16.03
2022-12-17T06:37:35.970Z,16.77
2022-12-17T06:40:21.130Z,15.33
2022-12-17T06:43:15.581Z,15.67
2022-12-17T06:46:14.092Z,15.30
2022-12-17T06:48:59.642Z,15.23
2022-12-17T06:51:45.022Z,15.53
2022-12-17T06:54:30.424Z,15.53
2022-12-17T06:57:15.653Z,15.13
2022-12-17T07:00:01.332Z,16.00
2022-12-17T07:02:46.986Z,15.80
2022-12-17T07:05:32.570Z,16.03
2022-12-17T07:08:19.215Z,15.93
2022-12-17T07:11:04.694Z,14.87
2022-12-17T07:13:49.884Z,15.27
2022-12-17T07:16:35.378Z,15.97
2022-12-17T07:19:26.788Z,16.17
2022-12-17T07:22:12.629Z,14.50
2022-12-17T07:24:57.884Z,15.07
2022-12-17T07:27:43.310Z,15.37
2022-12-17T07:30:29.112Z,15.57
2022-12-17T07:33:23.630Z,14.33
2022-12-17T07:36:10.328Z,15.00
2022-12-17T07:38:55.650Z,14.17
2022-12-17T07:41:41.120Z,14.80
2022-12-17T07:44:26.398Z,15.27
2022-12-17T07:47:11.674Z,14.47
2022-12-17T07:49:56.905Z,14.40
2022-12-17T07:52:42.408Z,13.93
2022-12-17T07:55:28.310Z,13.97
2022-12-17T07:58:22.812Z,14.77
2022-12-17T08:01:08.154Z,14.17
2022-12-17T08:03:53.394Z,13.97
2022-12-17T08:06:39.193Z,14.47
2022-12-17T08:09:25.431Z,15.07
2022-12-17T08:12:10.915Z,13.93
2022-12-17T08:14:56.195Z,14.57
2022-12-17T08:17:43.730Z,14.30
2022-12-17T08:20:30.710Z,15.10
2022-12-17T08:23:23.365Z,14.60
2022-12-17T08:26:08.624Z,15.40
2022-12-17T08:28:54.416Z,15.80
2022-12-17T08:31:41.829Z,15.77
2022-12-17T08:34:27.083Z,14.80
2022-12-17T08:37:12.387Z,16.27
2022-12-17T08:39:57.692Z,15.40
2022-12-17T08:42:43.050Z,14.30
2022-12-17T08:45:28.895Z,15.40
2022-12-17T08:48:22.713Z,14.80
2022-12-17T08:51:07.986Z,15.23
2022-12-17T08:53:53.320Z,15.07
2022-12-17T08:56:38.691Z,16.00
2022-12-17T08:59:26.154Z,15.27
2022-12-17T09:02:11.592Z,15.70
2022-12-17T09:04:56.994Z,15.67
2022-12-17T09:07:42.270Z,15.57
2022-12-17T09:10:27.543Z,15.57
2022-12-17T09:13:12.728Z,15.50
2022-12-17T09:15:58.114Z,15.07
2022-12-17T09:18:43.292Z,15.80
2022-12-17T09:21:28.826Z,16.17
2022-12-17T09:24:14.166Z,16.17
2022-12-17T09:26:59.498Z,15.00
2022-12-17T09:29:44.814Z,14.93
2022-12-17T09:32:30.161Z,15.80
2022-12-17T09:35:15.710Z,14.40
2022-12-17T09:38:00.951Z,15.80
2022-12-17T09:40:54.325Z,15.80
2022-12-17T09:43:39.597Z,15.93
2022-12-17T09:46:34.400Z,15.83
2022-12-17T09:49:23.309Z,15.27
2022-12-17T09:52:08.715Z,15.37
2022-12-17T09:55:05.205Z,14.57
2022-12-17T09:57:56.337Z,15.90
2022-12-17T10:00:47.223Z,15.80
2022-12-17T10:03:41.718Z,15.80
2022-12-17T10:06:31.123Z,16.03
2022-12-17T10:09:25.591Z,16.67
2022-12-17T10:12:10.924Z,16.03
2022-12-17T10:14:56.186Z,16.33
2022-12-17T10:17:42.391Z,16.47
2022-12-17T10:20:40.190Z,16.37
2022-12-17T10:23:25.976Z,17.13
2022-12-17T10:26:15.817Z,16.70
2022-12-17T10:29:01.237Z,16.47
2022-12-17T10:31:49.323Z,16.03
2022-12-17T10:34:37.841Z,15.87
2022-12-17T10:37:24.915Z,15.90
2022-12-17T10:40:18.668Z,16.33
2022-12-17T10:43:04.852Z,16.70
2022-12-17T10:45:52.849Z,15.83
2022-12-17T10:48:48.798Z,16.23
2022-12-17T10:51:49.386Z,16.60
2022-12-17T10:54:51.410Z,17.37
2022-12-17T10:57:51.217Z,16.90
2022-12-17T11:00:36.797Z,17.47
2022-12-17T11:03:23.131Z,17.00
2022-12-17T11:06:12.597Z,17.73
2022-12-17T11:08:58.924Z,17.40
2022-12-17T11:11:44.767Z,18.43
2022-12-17T11:14:32.123Z,18.13
2022-12-17T11:17:22.580Z,18.67
2022-12-17T11:20:12.107Z,17.37
2022-12-17T11:23:08.557Z,16.77
2022-12-17T11:26:18.981Z,17.20
2022-12-17T11:29:04.316Z,14.77
2022-12-17T11:32:07.302Z,15.17
2022-12-17T11:35:08.615Z,15.73
2022-12-17T11:38:21.959Z,14.57
2022-12-17T11:41:18.921Z,15.77
2022-12-17T11:44:17.214Z,14.40
2022-12-17T11:47:25.383Z,15.30
2022-12-17T11:50:34.761Z,14.60
2022-12-17T11:53:33.977Z,13.67
2022-12-17T11:56:38.181Z,14.33
2022-12-17T11:59:38.844Z,14.83
2022-12-17T12:02:42.493Z,15.07
2022-12-17T12:05:56.457Z,14.87
2022-12-17T12:08:58.351Z,15.70
2022-12-17T12:12:00.412Z,16.33
2022-12-17T12:15:16.116Z,17.10
2022-12-17T12:18:20.585Z,15.53
2022-12-17T12:21:16.242Z,15.27
2022-12-17T12:24:16.985Z,16.13
2022-12-17T12:27:07.629Z,15.67
2022-12-17T12:30:22.430Z,15.77
2022-12-17T12:33:10.527Z,15.47
2022-12-17T12:35:57.156Z,14.77
2022-12-17T12:38:57.911Z,15.20
2022-12-17T12:42:03.311Z,14.27
2022-12-17T12:45:11.929Z,14.67
2022-12-17T12:48:25.344Z,14.10
2022-12-17T12:51:41.696Z,13.17
2022-12-17T12:54:50.317Z,12.73
2022-12-17T12:58:02.342Z,12.27
2022-12-17T13:01:09.679Z,12.40
2022-12-17T13:04:03.396Z,13.10
2022-12-17T13:06:54.268Z,13.53
2022-12-17T13:09:32.204Z,14.17
2022-12-17T13:12:04.013Z,13.43
2022-12-17T13:14:43.996Z,14.97
2022-12-17T13:17:16.564Z,15.13
2022-12-17T13:19:58.580Z,14.53
2022-12-17T13:22:29.913Z,14.27
2022-12-17T13:25:15.888Z,14.57
2022-12-17T13:27:43.584Z,13.83
2022-12-17T13:30:22.569Z,14.60
2022-12-17T13:32:59.412Z,13.93
2022-12-17T13:35:49.420Z,14.17
2022-12-17T13:38:33.835Z,15.03
2022-12-17T13:41:13.273Z,15.10
2022-12-17T13:43:54.840Z,15.10
2022-12-17T13:46:27.035Z,15.70
2022-12-17T13:49:16.334Z,14.47
2022-12-17T13:51:43.936Z,15.37
2022-12-17T13:54:23.884Z,15.90
2022-12-17T13:56:50.749Z,15.53
2022-12-17T13:59:24.186Z,16.13
2022-12-17T14:01:53.691Z,16.60
2022-12-17T14:04:30.506Z,17.37
2022-12-17T14:07:11.354Z,16.80
2022-12-17T14:09:42.782Z,16.30
2022-12-17T14:12:23.708Z,16.97
2022-12-17T14:15:01.271Z,16.93
2022-12-17T14:17:48.752Z,17.67
2022-12-17T14:20:33.933Z,17.30
2022-12-17T14:23:02.525Z,17.00
2022-12-17T14:25:40.909Z,17.93
2022-12-17T14:28:33.282Z,18.53
2022-12-17T14:31:29.367Z,17.67
2022-12-17T14:34:08.426Z,17.70
2022-12-17T14:36:40.951Z,17.37
2022-12-17T14:39:25.446Z,16.60
2022-12-17T14:42:12.891Z,16.53
2022-12-17T14:44:55.578Z,15.77
2022-12-17T14:47:26.196Z,16.50
2022-12-17T14:50:23.556Z,15.63
2022-12-17T14:52:55.523Z,16.00
2022-12-17T14:55:26.128Z,16.03
2022-12-17T14:57:54.807Z,16.70
2022-12-17T15:00:22.106Z,16.13
2022-12-17T15:02:57.890Z,16.47
2022-12-17T15:05:24.988Z,17.27
2022-12-17T15:07:52.010Z,16.87
2022-12-17T15:10:20.566Z,14.97
2022-12-17T15:12:48.811Z,16.60
2022-12-17T15:15:16.593Z,16.27
2022-12-17T15:17:43.812Z,16.80
2022-12-17T15:20:18.127Z,16.97
2022-12-17T15:22:46.089Z,17.83
2022-12-17T15:25:14.992Z,16.97
2022-12-17T15:27:42.289Z,17.17
2022-12-17T15:30:17.280Z,17.80
2022-12-17T15:32:45.615Z,16.47
2022-12-17T15:35:14.110Z,16.53
2022-12-17T15:37:42.064Z,16.47
2022-12-17T15:40:11.988Z,15.57
2022-12-17T15:43:04.418Z,15.57
2022-12-17T15:45:33.287Z,17.20
2022-12-17T15:48:00.221Z,16.87
2022-12-17T15:50:27.107Z,17.30
2022-12-17T15:52:54.186Z,17.83
2022-12-17T15:55:21.348Z,18.20
2022-12-17T15:57:48.175Z,18.77
2022-12-17T16:00:15.363Z,17.93
2022-12-17T16:02:42.319Z,18.13
2022-12-17T16:05:09.525Z,18.83
2022-12-17T16:07:37.981Z,19.00
2022-12-17T16:10:06.813Z,19.47
2022-12-17T16:12:33.872Z,19.83
2022-12-17T16:15:04.572Z,17.70
2022-12-17T16:17:31.446Z,20.93
2022-12-17T16:19:58.595Z,20.17
2022-12-17T16:22:27.705Z,19.53
2022-12-17T16:24:54.620Z,19.17
2022-12-17T16:27:21.770Z,19.20
2022-12-17T16:29:48.636Z,20.73
2022-12-17T16:32:16.775Z,20.37
2022-12-17T16:34:44.224Z,19.30
2022-12-17T16:37:11.686Z,20.17
2022-12-17T16:39:38.664Z,20.57
2022-12-17T16:42:05.628Z,21.03
2022-12-17T16:44:32.472Z,19.00
2022-12-17T16:46:59.839Z,20.43
2022-12-17T16:49:27.445Z,19.57
2022-12-17T16:51:55.410Z,20.10
2022-12-17T16:54:26.950Z,20.63
2022-12-17T16:56:55.130Z,20.63
2022-12-17T16:59:23.371Z,18.57
2022-12-17T17:01:52.054Z,20.50
2022-12-17T17:04:23.435Z,18.70
2022-12-17T17:06:53.251Z,19.33
2022-12-17T17:09:21.247Z,19.73
2022-12-17T17:11:51.465Z,19.30
2022-12-17T17:14:19.113Z,19.00
2022-12-17T17:16:46.199Z,20.00
2022-12-17T17:19:13.071Z,17.70
2022-12-17T17:21:42.645Z,17.20
2022-12-17T17:24:20.921Z,18.13
2022-12-17T17:26:49.338Z,17.80
2022-12-17T17:29:16.838Z,16.87
2022-12-17T17:32:09.335Z,18.03
2022-12-17T17:34:33.335Z,16.40
2022-12-17T17:37:00.213Z,16.63
2022-12-17T17:39:27.559Z,16.10
2022-12-17T17:41:54.545Z,16.83
2022-12-17T17:44:21.447Z,15.77
2022-12-17T17:46:48.420Z,17.87
2022-12-17T17:49:15.597Z,17.40
2022-12-17T17:54:30.956Z,16.43
2022-12-17T17:56:57.861Z,17.47
2022-12-17T17:59:32.517Z,18.00
2022-12-17T18:02:01.452Z,17.23
2022-12-17T18:04:28.607Z,16.60
2022-12-17T18:09:42.287Z,16.50
2022-12-17T18:12:27.596Z,15.97
2022-12-17T18:17:41.457Z,14.27
2022-12-17T18:20:09.852Z,14.27
2022-12-17T18:22:37.190Z,14.80
2022-12-17T18:25:04.495Z,14.83
2022-12-17T18:27:31.272Z,14.00
2022-12-17T18:29:58.093Z,14.37
2022-12-17T18:32:24.931Z,13.70
2022-12-17T18:34:51.931Z,14.13
2022-12-17T18:37:18.988Z,13.73
2022-12-17T18:39:45.865Z,13.80
2022-12-17T18:42:31.016Z,14.73
2022-12-17T18:44:57.935Z,13.43
2022-12-17T18:47:25.656Z,13.53
2022-12-17T18:49:52.583Z,12.80
2022-12-17T18:52:19.563Z,12.80
2022-12-17T18:54:46.438Z,13.07
2022-12-17T18:57:13.600Z,12.37
2022-12-17T18:59:41.238Z,13.40
2022-12-17T19:02:13.115Z,12.90
2022-12-17T19:04:40.209Z,12.03
2022-12-17T19:07:07.197Z,13.47
2022-12-17T19:09:39.453Z,12.53
2022-12-17T19:12:08.268Z,13.30
2022-12-17T19:14:35.926Z,12.73
2022-12-17T19:17:03.139Z,12.77
2022-12-17T19:19:29.977Z,12.40
2022-12-17T19:21:58.689Z,13.27
2022-12-17T19:24:28.707Z,13.03
2022-12-17T19:26:55.954Z,14.80
2022-12-17T19:29:23.224Z,13.80
2022-12-17T19:31:52.252Z,14.20
2022-12-17T19:34:19.881Z,15.33
2022-12-17T19:36:47.374Z,14.60
2022-12-17T19:39:17.998Z,14.23
2022-12-17T19:41:44.972Z,14.57
2022-12-17T19:44:13.946Z,15.77
2022-12-17T19:46:41.505Z,15.77
2022-12-17T19:49:10.798Z,15.10
2022-12-17T19:51:40.385Z,16.27
2022-12-17T19:54:09.137Z,17.07
2022-12-17T19:56:36.702Z,15.27
2022-12-17T19:59:07.366Z,15.67
2022-12-17T20:01:37.382Z,15.20
2022-12-17T20:04:04.905Z,16.60
2022-12-17T20:06:33.377Z,16.60
2022-12-17T20:09:01.497Z,16.77
2022-12-17T20:11:35.372Z,17.90
2022-12-17T20:14:08.396Z,16.63
2022-12-17T20:16:44.209Z,17.63
2022-12-17T20:19:14.501Z,18.07
2022-12-17T20:21:41.629Z,19.10
2022-12-17T20:24:10.077Z,19.13
2022-12-17T20:26:37.007Z,19.07
2022-12-17T20:29:05.012Z,19.00
2022-12-17T20:31:32.719Z,19.33
2022-12-17T20:34:03.783Z,19.57
2022-12-17T20:36:31.192Z,20.47
2022-12-17T20:38:58.574Z,19.53
2022-12-17T20:41:28.343Z,20.17
2022-12-17T20:43:55.658Z,19.17
2022-12-17T20:46:23.970Z,21.17
2022-12-17T20:48:51.974Z,19.93
2022-12-17T20:51:22.491Z,20.37
2022-12-17T20:53:49.984Z,19.03
2022-12-17T20:56:20.193Z,18.33
2022-12-17T20:58:47.590Z,19.47
2022-12-17T21:01:18.733Z,20.07
2022-12-17T21:03:47.019Z,19.87
2022-12-17T21:06:18.104Z,19.03
2022-12-17T21:08:50.106Z,18.13
2022-12-17T21:11:23.000Z,18.53
2022-12-17T21:13:50.494Z,18.53
2022-12-17T21:16:20.195Z,17.60
2022-12-17T21:18:47.233Z,17.63
2022-12-17T21:21:18.392Z,18.20
2022-12-17T21:23:46.875Z,18.33
2022-12-17T21:26:16.356Z,18.30
2022-12-17T21:28:45.408Z,17.33
2022-12-17T21:31:22.752Z,17.20
2022-12-17T21:33:54.127Z,17.40
2022-12-17T21:36:22.322Z,17.60
2022-12-17T21:38:50.510Z,16.40
2022-12-17T21:41:22.609Z,16.37
2022-12-17T21:43:57.492Z,15.43
2022-12-17T21:46:27.046Z,15.43
2022-12-17T21:48:55.016Z,14.13
2022-12-17T21:51:22.309Z,15.43
2022-12-17T21:53:54.054Z,15.73
2022-12-17T21:56:21.071Z,15.10
2022-12-17T21:58:48.713Z,14.33
2022-12-17T22:01:19.742Z,14.63
2022-12-17T22:03:53.714Z,14.27
2022-12-17T22:06:24.593Z,14.93
2022-12-17T22:08:55.462Z,15.13
2022-12-17T22:11:27.783Z,15.20
2022-12-17T22:14:18.694Z,15.70
2022-12-17T22:16:49.485Z,14.47
2022-12-17T22:19:23.318Z,14.63
2022-12-17T22:21:52.899Z,15.37
2022-12-17T22:24:24.941Z,15.57
2022-12-17T22:26:59.537Z,15.20
2022-12-17T22:29:46.033Z,15.27
2022-12-17T22:32:31.456Z,14.77
2022-12-17T22:36:23.977Z,15.57
2022-12-17T22:41:22.694Z,14.53
2022-12-17T22:43:59.325Z,13.87
2022-12-17T22:44:45.403Z,15.40
2022-12-17T22:46:19.529Z,14.73
2022-12-17T22:48:46.990Z,15.50
2022-12-17T22:51:17.517Z,15.73
2022-12-17T22:53:46.110Z,15.67
2022-12-17T22:56:22.002Z,16.30
2022-12-17T22:59:00.036Z,16.73
2022-12-17T23:01:27.117Z,16.83
2022-12-17T23:03:58.967Z,16.27
2022-12-17T23:06:26.649Z,17.87
2022-12-17T23:08:53.893Z,17.13
2022-12-17T23:11:23.138Z,17.47
2022-12-17T23:13:50.385Z,17.37
2022-12-17T23:16:17.947Z,17.50
2022-12-17T23:18:46.316Z,17.97
2022-12-17T23:21:16.200Z,17.33
2022-12-17T23:23:43.675Z,17.03
2022-12-17T23:26:19.506Z,18.53
2022-12-17T23:28:46.662Z,16.83
2022-12-17T23:31:17.618Z,18.33
2022-12-17T23:33:45.374Z,18.10
2022-12-17T23:36:20.340Z,16.90
2022-12-17T23:38:47.856Z,17.87
2022-12-17T23:41:18.982Z,18.10
2022-12-17T23:43:46.667Z,17.40
2022-12-17T23:46:13.945Z,18.23
2022-12-17T23:48:45.543Z,17.50
2022-12-17T23:51:14.819Z,16.90
2022-12-17T23:53:42.729Z,16.77
2022-12-17T23:56:12.970Z,16.53
2022-12-17T23:58:40.796Z,17.10
